Terminal Aerodrome Forecast
Issued by NWS

Home | Current Version | Previous Version | Graphics & Text | Print | Product List | Glossary On
Versions: 1 2 3 4 5 6 7 8 9 10 11 12 13 14
000
FTUS43 KBIS 200500
TAFDIK
TAF
KDIK 200540Z 2006/2106 18007KT P6SM FEW300
     FM201500 21012KT P6SM SCT250
     FM201700 27017G24KT P6SM SCT120
     FM201900 29021G27KT P6SM BKN110
     FM202200 29020G26KT P6SM SKC
     FM210200 28011KT P6SM SKC=

USA.gov is the U.S. government's official web portal to all federal, state and local government web resources and services.